createdAt,value
2023-11-11T00:00:11.099Z,99.90
2023-11-11T00:02:39.067Z,99.90
2023-11-11T00:05:06.548Z,99.90
2023-11-11T00:07:33.817Z,99.90
2023-11-11T00:10:01.807Z,99.90
2023-11-11T00:12:28.889Z,99.90
2023-11-11T00:14:55.757Z,99.90
2023-11-11T00:17:23.266Z,99.90
2023-11-11T00:19:51.012Z,99.90
2023-11-11T00:22:17.880Z,99.90
2023-11-11T00:24:45.861Z,99.90
2023-11-11T00:27:15.807Z,99.90
2023-11-11T00:29:43.343Z,99.90
2023-11-11T00:32:10.526Z,99.90
2023-11-11T00:34:40.475Z,99.90
2023-11-11T00:40:18.713Z,99.90
2023-11-11T00:42:45.712Z,99.90
2023-11-11T00:45:16.071Z,99.90
2023-11-11T00:47:43.552Z,99.90
2023-11-11T00:50:11.251Z,99.90
2023-11-11T00:52:38.307Z,99.90
2023-11-11T00:55:07.560Z,99.90
2023-11-11T00:57:35.011Z,99.90
2023-11-11T01:00:02.364Z,99.90
2023-11-11T01:02:29.212Z,99.90
2023-11-11T01:04:56.015Z,99.90
2023-11-11T01:07:22.818Z,99.90
2023-11-11T01:09:54.035Z,99.90
2023-11-11T01:12:23.812Z,99.90
2023-11-11T01:14:51.200Z,99.90
2023-11-11T01:17:20.007Z,99.90
2023-11-11T01:19:47.894Z,99.90
2023-11-11T01:22:14.941Z,99.90
2023-11-11T01:24:42.491Z,99.90
2023-11-11T01:27:12.481Z,99.90
2023-11-11T01:29:39.745Z,99.90
2023-11-11T01:32:09.830Z,99.90
2023-11-11T01:34:36.595Z,99.90
2023-11-11T01:37:09.043Z,99.90
2023-11-11T01:39:36.767Z,99.90
2023-11-11T01:42:06.513Z,99.90
2023-11-11T01:44:33.429Z,99.90
2023-11-11T01:47:01.738Z,99.90
2023-11-11T01:49:29.231Z,99.90
2023-11-11T01:51:56.234Z,99.90
2023-11-11T01:54:24.750Z,99.90
2023-11-11T01:56:53.249Z,99.90
2023-11-11T01:59:20.596Z,99.90
2023-11-11T02:01:47.632Z,99.90
2023-11-11T02:04:15.539Z,99.90
2023-11-11T02:06:43.198Z,99.90
2023-11-11T02:09:10.199Z,99.90
2023-11-11T02:11:37.133Z,99.90
2023-11-11T02:14:04.630Z,99.90
2023-11-11T02:16:35.426Z,99.90
2023-11-11T02:19:02.443Z,99.90
2023-11-11T02:21:33.053Z,99.90
2023-11-11T02:24:01.653Z,99.90
2023-11-11T02:26:28.462Z,99.90
2023-11-11T02:28:56.578Z,99.90
2023-11-11T02:31:24.057Z,99.90
2023-11-11T02:33:50.920Z,99.90
2023-11-11T02:36:18.415Z,99.90
2023-11-11T02:38:45.689Z,99.90
2023-11-11T02:41:12.441Z,99.90
2023-11-11T02:43:39.811Z,99.90
2023-11-11T02:46:06.745Z,99.90
2023-11-11T02:48:33.955Z,99.90
2023-11-11T02:51:00.759Z,99.90
2023-11-11T02:53:27.667Z,99.90
2023-11-11T02:55:54.577Z,99.90
2023-11-11T02:58:21.397Z,99.90
2023-11-11T03:00:48.393Z,99.90
2023-11-11T03:03:15.343Z,99.90
2023-11-11T03:05:42.227Z,99.90
2023-11-11T03:08:09.011Z,99.90
2023-11-11T03:10:35.843Z,99.90
2023-11-11T03:13:02.617Z,99.90
2023-11-11T03:15:29.681Z,99.90
2023-11-11T03:17:56.531Z,99.90
2023-11-11T03:20:23.464Z,99.90
2023-11-11T03:22:51.776Z,99.90
2023-11-11T03:25:20.595Z,99.90
2023-11-11T03:27:47.478Z,99.90
2023-11-11T03:30:14.615Z,99.90
2023-11-11T03:32:41.493Z,99.90
2023-11-11T03:35:08.653Z,99.90
2023-11-11T03:37:35.838Z,99.90
2023-11-11T03:40:03.598Z,99.90
2023-11-11T03:42:30.475Z,99.90
2023-11-11T03:44:57.349Z,99.90
2023-11-11T03:47:24.235Z,99.90
2023-11-11T03:49:51.008Z,99.90
2023-11-11T03:52:17.833Z,99.90
2023-11-11T03:54:44.613Z,99.90
2023-11-11T03:57:11.347Z,99.90
2023-11-11T03:59:38.810Z,99.90
2023-11-11T04:02:06.185Z,99.90
2023-11-11T04:04:34.247Z,99.90
2023-11-11T04:07:01.069Z,99.90
2023-11-11T04:09:31.511Z,99.90
2023-11-11T04:11:58.464Z,99.90
2023-11-11T04:14:25.357Z,99.90
2023-11-11T04:16:52.393Z,99.90
2023-11-11T04:19:19.742Z,99.90
2023-11-11T04:21:51.379Z,99.90
2023-11-11T04:24:19.296Z,99.90
2023-11-11T04:26:47.380Z,99.90
2023-11-11T04:29:14.542Z,99.90
2023-11-11T04:31:41.409Z,99.90
2023-11-11T04:34:08.264Z,99.90
2023-11-11T04:36:37.295Z,99.90
2023-11-11T04:39:04.340Z,99.90
2023-11-11T04:41:31.162Z,99.90
2023-11-11T04:43:58.162Z,99.90
2023-11-11T04:46:24.981Z,99.90
2023-11-11T04:48:57.250Z,99.90
2023-11-11T04:51:24.136Z,99.90
2023-11-11T04:53:50.882Z,99.90
2023-11-11T04:56:17.631Z,99.90
2023-11-11T04:58:44.388Z,99.90
2023-11-11T05:01:11.160Z,99.90
2023-11-11T05:03:38.604Z,99.90
2023-11-11T05:06:06.785Z,99.90
2023-11-11T05:08:33.876Z,99.90
2023-11-11T05:11:04.126Z,99.90
2023-11-11T05:13:36.390Z,99.90
2023-11-11T05:16:15.082Z,99.90
2023-11-11T05:18:42.027Z,99.90
2023-11-11T05:21:11.411Z,99.90
2023-11-11T05:23:39.145Z,99.90
2023-11-11T05:26:07.199Z,99.90
2023-11-11T05:28:34.181Z,99.90
2023-11-11T05:31:01.780Z,99.90
2023-11-11T05:33:28.845Z,99.90
2023-11-11T05:35:55.811Z,99.90
2023-11-11T05:38:22.903Z,99.90
2023-11-11T05:40:49.894Z,99.90
2023-11-11T05:43:16.626Z,99.90
2023-11-11T05:45:43.492Z,99.90
2023-11-11T05:48:10.671Z,99.90
2023-11-11T05:50:39.377Z,99.90
2023-11-11T05:53:08.074Z,99.90
2023-11-11T05:55:35.029Z,99.90
2023-11-11T05:58:01.779Z,99.90
2023-11-11T06:00:28.964Z,99.90
2023-11-11T06:02:55.813Z,99.90
2023-11-11T06:05:23.048Z,99.90
2023-11-11T06:07:50.064Z,99.90
2023-11-11T06:10:19.148Z,99.90
2023-11-11T06:12:46.928Z,99.90
2023-11-11T06:15:18.940Z,99.90
2023-11-11T06:17:45.981Z,99.90
2023-11-11T06:20:13.188Z,99.90
2023-11-11T06:22:40.067Z,99.90
2023-11-11T06:25:08.593Z,99.90
2023-11-11T06:27:35.901Z,99.90
2023-11-11T06:30:02.997Z,99.90
2023-11-11T06:32:29.982Z,99.90
2023-11-11T06:34:57.266Z,99.90
2023-11-11T06:37:26.669Z,99.90
2023-11-11T06:39:53.568Z,99.90
2023-11-11T06:42:20.416Z,99.90
2023-11-11T06:44:47.234Z,99.90
2023-11-11T06:47:16.204Z,99.90
2023-11-11T06:49:42.986Z,99.90
2023-11-11T06:52:10.156Z,99.90
2023-11-11T06:54:36.896Z,99.90
2023-11-11T06:57:06.660Z,99.90
2023-11-11T06:59:34.216Z,99.90
2023-11-11T07:02:00.930Z,99.90
2023-11-11T07:04:28.277Z,99.90
2023-11-11T07:06:55.206Z,99.90
2023-11-11T07:09:22.231Z,99.90
2023-11-11T07:11:49.026Z,99.90
2023-11-11T07:14:16.140Z,99.90
2023-11-11T07:16:43.067Z,99.90
2023-11-11T07:19:10.255Z,99.90
2023-11-11T07:21:37.365Z,99.90
2023-11-11T07:24:04.425Z,99.90
2023-11-11T07:26:31.734Z,99.90
2023-11-11T07:28:58.538Z,99.90
2023-11-11T07:31:25.305Z,99.90
2023-11-11T07:33:52.350Z,99.90
2023-11-11T07:36:19.275Z,99.90
2023-11-11T07:38:47.625Z,99.90
2023-11-11T07:41:20.360Z,99.90
2023-11-11T07:43:47.165Z,99.90
2023-11-11T07:46:14.258Z,99.90
2023-11-11T07:48:42.362Z,99.90
2023-11-11T07:51:11.996Z,99.90
2023-11-11T07:53:39.056Z,99.90
2023-11-11T07:56:07.121Z,99.90
2023-11-11T07:58:36.554Z,99.90
2023-11-11T08:01:04.825Z,99.90
2023-11-11T08:03:34.921Z,99.90
2023-11-11T08:06:01.720Z,99.90
2023-11-11T08:08:31.010Z,99.90
2023-11-11T08:10:58.216Z,99.90
2023-11-11T08:13:25.969Z,99.90
2023-11-11T08:15:53.576Z,99.90
2023-11-11T08:18:20.536Z,99.90
2023-11-11T08:20:48.041Z,99.90
2023-11-11T08:23:15.077Z,99.90
2023-11-11T08:25:41.943Z,99.90
2023-11-11T08:28:09.045Z,99.90
2023-11-11T08:30:35.925Z,99.90
2023-11-11T08:33:04.278Z,99.10
2023-11-11T08:35:31.445Z,99.60
2023-11-11T08:38:01.155Z,98.90
2023-11-11T08:40:28.947Z,99.70
2023-11-11T08:42:55.688Z,99.70
2023-11-11T08:45:22.577Z,98.50
2023-11-11T08:47:50.025Z,98.10
2023-11-11T08:50:16.838Z,98.00
2023-11-11T08:52:43.647Z,98.70
2023-11-11T08:55:12.212Z,98.90
2023-11-11T08:57:39.859Z,97.30
2023-11-11T09:00:09.895Z,97.30
2023-11-11T09:02:37.401Z,97.00
2023-11-11T09:05:06.021Z,96.80
2023-11-11T09:07:35.150Z,96.60
2023-11-11T09:10:04.279Z,96.60
2023-11-11T09:12:31.921Z,96.30
2023-11-11T09:14:58.905Z,97.10
2023-11-11T09:17:25.913Z,96.80
2023-11-11T09:19:53.084Z,96.10
2023-11-11T09:22:20.213Z,96.40
2023-11-11T09:24:47.502Z,96.70
2023-11-11T09:27:16.029Z,96.70
2023-11-11T09:29:43.749Z,97.00
2023-11-11T09:32:12.861Z,95.90
2023-11-11T09:34:43.879Z,95.60
2023-11-11T09:37:11.960Z,94.00
2023-11-11T09:39:39.113Z,94.10
2023-11-11T09:42:10.768Z,93.20
2023-11-11T09:47:14.180Z,93.20
2023-11-11T09:49:41.524Z,93.50
2023-11-11T09:52:14.637Z,93.30
2023-11-11T09:54:43.151Z,92.90
2023-11-11T09:57:14.668Z,93.20
2023-11-11T09:59:42.307Z,92.30
2023-11-11T10:02:14.486Z,92.70
2023-11-11T10:04:41.569Z,92.90
2023-11-11T10:07:09.173Z,92.10
2023-11-11T10:09:37.353Z,91.50
2023-11-11T10:12:05.792Z,91.00
2023-11-11T10:14:36.669Z,91.70
2023-11-11T10:17:05.256Z,92.00
2023-11-11T10:19:32.848Z,91.70
2023-11-11T10:22:00.633Z,92.00
2023-11-11T10:24:27.459Z,92.10
2023-11-11T10:26:54.608Z,92.60
2023-11-11T10:29:21.418Z,92.20
2023-11-11T10:31:49.318Z,92.30
2023-11-11T10:34:16.256Z,92.00
2023-11-11T10:36:46.003Z,92.40
2023-11-11T10:39:13.792Z,91.80
2023-11-11T10:41:41.308Z,92.20
2023-11-11T10:44:09.641Z,92.30
2023-11-11T10:46:38.417Z,92.50
2023-11-11T10:49:06.162Z,92.30
2023-11-11T10:51:35.369Z,91.80
2023-11-11T10:54:06.925Z,91.90
2023-11-11T10:56:34.667Z,92.00
2023-11-11T10:59:05.420Z,92.10
2023-11-11T11:01:36.779Z,92.20
2023-11-11T11:04:05.966Z,91.90
2023-11-11T11:06:43.772Z,92.00
2023-11-11T11:09:19.540Z,92.20
2023-11-11T11:12:02.455Z,92.00
2023-11-11T11:14:52.337Z,92.10
2023-11-11T11:17:26.307Z,92.20
2023-11-11T11:20:05.836Z,92.20
2023-11-11T11:22:40.605Z,92.00
2023-11-11T11:25:43.159Z,92.00
2023-11-11T11:28:15.889Z,91.20
2023-11-11T11:30:46.697Z,91.40
2023-11-11T11:33:17.861Z,91.00
2023-11-11T11:35:50.149Z,91.40
2023-11-11T11:38:40.934Z,90.80
2023-11-11T11:41:14.978Z,90.00
2023-11-11T11:43:43.509Z,90.20
2023-11-11T11:46:11.294Z,90.10
2023-11-11T11:48:40.139Z,90.10
2023-11-11T11:51:12.086Z,90.60
2023-11-11T11:53:42.478Z,90.80
2023-11-11T11:56:15.157Z,90.50
2023-11-11T11:58:52.769Z,90.50
2023-11-11T12:01:27.584Z,90.40
2023-11-11T12:03:56.292Z,91.00
2023-11-11T12:06:24.509Z,90.90
2023-11-11T12:08:52.710Z,90.60
2023-11-11T12:11:26.763Z,90.60
2023-11-11T12:13:55.087Z,90.50
2023-11-11T12:16:37.220Z,90.60
2023-11-11T12:19:11.213Z,90.20
2023-11-11T12:21:50.264Z,90.70
2023-11-11T12:24:26.954Z,90.60
2023-11-11T12:27:00.437Z,90.50
2023-11-11T12:29:29.179Z,90.50
2023-11-11T12:31:56.733Z,90.80
2023-11-11T12:34:27.984Z,90.90
2023-11-11T12:36:55.427Z,91.00
2023-11-11T12:39:26.562Z,91.10
2023-11-11T12:41:56.563Z,90.90
2023-11-11T12:44:27.929Z,91.10
2023-11-11T12:46:57.703Z,90.60
2023-11-11T12:49:29.390Z,90.70
2023-11-11T12:51:59.921Z,90.50
2023-11-11T12:54:33.282Z,90.50
2023-11-11T12:57:01.026Z,90.40
2023-11-11T12:59:28.177Z,89.50
2023-11-11T13:02:01.223Z,89.40
2023-11-11T13:04:30.189Z,88.80
2023-11-11T13:06:57.288Z,88.10
2023-11-11T13:09:46.772Z,88.00
2023-11-11T13:12:18.111Z,89.00
2023-11-11T13:14:51.047Z,87.60
2023-11-11T13:17:27.730Z,86.70
2023-11-11T13:19:54.823Z,88.80
2023-11-11T13:22:23.640Z,88.80
2023-11-11T13:24:50.433Z,89.70
2023-11-11T13:27:17.186Z,88.60
2023-11-11T13:29:43.965Z,88.90
2023-11-11T13:32:12.874Z,89.10
2023-11-11T13:34:42.454Z,89.30
2023-11-11T13:37:19.748Z,89.40
2023-11-11T13:39:55.180Z,90.20
2023-11-11T13:42:24.120Z,90.20
2023-11-11T13:44:51.373Z,89.70
2023-11-11T13:47:19.438Z,87.20
2023-11-11T13:49:46.212Z,86.70
2023-11-11T13:52:16.080Z,86.00
2023-11-11T13:54:43.674Z,87.20
2023-11-11T13:57:10.539Z,86.50
2023-11-11T13:59:38.479Z,86.60
2023-11-11T14:02:06.904Z,86.90
2023-11-11T14:04:33.800Z,88.70
2023-11-11T14:07:00.825Z,89.20
2023-11-11T14:09:29.846Z,89.90
2023-11-11T14:11:56.631Z,90.20
2023-11-11T14:14:23.382Z,89.80
2023-11-11T14:16:50.472Z,89.40
2023-11-11T14:19:17.370Z,88.30
2023-11-11T14:21:44.121Z,87.90
2023-11-11T14:24:10.885Z,88.40
2023-11-11T14:26:44.970Z,87.90
2023-11-11T14:29:13.114Z,88.90
2023-11-11T14:31:39.836Z,90.00
2023-11-11T14:34:08.200Z,89.20
2023-11-11T14:36:38.901Z,88.80
2023-11-11T14:39:07.673Z,88.20
2023-11-11T14:41:36.576Z,88.60
2023-11-11T14:44:04.173Z,88.10
2023-11-11T14:46:34.216Z,88.50
2023-11-11T14:49:01.372Z,88.50
2023-11-11T14:51:32.208Z,89.50
2023-11-11T14:53:59.093Z,89.70
2023-11-11T14:56:25.802Z,89.50
2023-11-11T14:58:52.741Z,89.70
2023-11-11T15:01:19.556Z,90.10
2023-11-11T15:03:46.931Z,90.50
2023-11-11T15:06:14.056Z,90.80
2023-11-11T15:08:41.531Z,90.80
2023-11-11T15:11:10.501Z,91.10
2023-11-11T15:13:37.987Z,91.00
2023-11-11T15:16:05.113Z,91.20
2023-11-11T15:18:31.842Z,91.40
2023-11-11T15:20:59.339Z,91.40
2023-11-11T15:23:27.834Z,91.30
2023-11-11T15:25:58.472Z,91.90
2023-11-11T15:28:25.538Z,92.20
2023-11-11T15:30:53.346Z,92.60
2023-11-11T15:33:20.278Z,92.50
2023-11-11T15:35:47.429Z,92.70
2023-11-11T15:38:15.696Z,93.10
2023-11-11T15:40:43.349Z,93.50
2023-11-11T15:43:10.206Z,93.30
2023-11-11T15:45:38.268Z,93.50
2023-11-11T15:48:05.333Z,93.80
2023-11-11T15:50:32.629Z,93.70
2023-11-11T15:52:59.405Z,93.70
2023-11-11T15:55:26.915Z,93.80
2023-11-11T15:57:54.043Z,93.80
2023-11-11T16:00:20.854Z,93.80
2023-11-11T16:02:47.637Z,94.30
2023-11-11T16:05:14.552Z,94.40
2023-11-11T16:07:41.450Z,94.10
2023-11-11T16:10:08.752Z,94.30
2023-11-11T16:12:35.578Z,94.80
2023-11-11T16:15:04.187Z,95.80
2023-11-11T16:17:31.766Z,96.00
2023-11-11T16:19:58.914Z,96.20
2023-11-11T16:22:27.870Z,96.90
2023-11-11T16:24:55.808Z,96.90
2023-11-11T16:27:23.468Z,97.30
2023-11-11T16:29:52.031Z,97.80
2023-11-11T16:32:20.421Z,98.50
2023-11-11T16:34:47.254Z,98.60
2023-11-11T16:37:14.033Z,98.60
2023-11-11T16:39:42.378Z,97.40
2023-11-11T16:42:09.362Z,98.20
2023-11-11T16:44:36.310Z,99.20
2023-11-11T16:47:06.051Z,99.90
2023-11-11T16:49:33.108Z,99.90
2023-11-11T16:52:00.530Z,99.90
2023-11-11T16:54:27.321Z,99.90
2023-11-11T16:56:54.446Z,99.90
2023-11-11T16:59:21.889Z,99.90
2023-11-11T17:01:50.263Z,99.90
2023-11-11T17:04:19.244Z,99.90
2023-11-11T17:06:46.296Z,99.90
2023-11-11T17:09:14.751Z,99.90
2023-11-11T17:11:45.696Z,99.90
2023-11-11T17:14:13.350Z,99.90
2023-11-11T17:16:40.747Z,99.90
2023-11-11T17:19:08.255Z,99.90
2023-11-11T17:21:35.154Z,99.90
2023-11-11T17:24:02.181Z,99.90
2023-11-11T17:26:29.036Z,99.90
2023-11-11T17:28:55.913Z,99.90
2023-11-11T17:31:22.832Z,99.90
2023-11-11T17:33:56.782Z,99.90
2023-11-11T17:36:29.385Z,99.90
2023-11-11T17:38:57.054Z,99.90
2023-11-11T17:41:24.230Z,99.90
2023-11-11T17:43:51.031Z,99.90
2023-11-11T17:46:22.032Z,99.90
2023-11-11T17:48:49.652Z,99.90
2023-11-11T17:51:17.450Z,99.90
2023-11-11T17:53:44.691Z,99.90
2023-11-11T17:56:21.090Z,99.90
2023-11-11T17:58:48.093Z,99.90
2023-11-11T18:01:15.620Z,99.90
2023-11-11T18:03:42.440Z,99.90
2023-11-11T18:06:09.329Z,99.90
2023-11-11T18:08:37.047Z,99.90
2023-11-11T18:11:08.252Z,99.90
2023-11-11T18:13:35.837Z,99.90
2023-11-11T18:16:03.200Z,99.90
2023-11-11T18:18:31.713Z,99.90
2023-11-11T18:20:58.540Z,99.90
2023-11-11T18:23:25.368Z,99.90
2023-11-11T18:25:52.134Z,99.90
2023-11-11T18:28:18.923Z,99.90
2023-11-11T18:30:47.399Z,99.90
2023-11-11T18:33:14.365Z,99.90
2023-11-11T18:35:42.746Z,99.90
2023-11-11T18:38:09.584Z,99.90
2023-11-11T18:40:36.313Z,99.90
2023-11-11T18:43:04.518Z,99.90
2023-11-11T18:45:31.473Z,99.90
2023-11-11T18:47:58.664Z,99.90
2023-11-11T18:50:26.528Z,99.90
2023-11-11T18:52:54.038Z,99.90
2023-11-11T18:55:21.502Z,99.90
2023-11-11T18:57:48.521Z,99.90
2023-11-11T19:00:16.211Z,99.90
2023-11-11T19:02:43.375Z,99.90
2023-11-11T19:05:10.704Z,99.90
2023-11-11T19:07:38.666Z,99.90
2023-11-11T19:10:08.809Z,99.90
2023-11-11T19:12:36.356Z,99.90
2023-11-11T19:15:03.464Z,99.90
2023-11-11T19:17:32.420Z,99.90
2023-11-11T19:20:00.450Z,99.90
2023-11-11T19:22:29.338Z,99.90
2023-11-11T19:24:58.031Z,99.90
2023-11-11T19:27:24.892Z,99.90
2023-11-11T19:29:51.761Z,99.90
2023-11-11T19:32:18.666Z,99.90
2023-11-11T19:34:45.540Z,99.90
2023-11-11T19:37:13.253Z,99.90
2023-11-11T19:39:39.883Z,99.90
2023-11-11T19:42:06.816Z,99.90
2023-11-11T19:44:33.992Z,99.90
2023-11-11T19:47:00.730Z,99.90
2023-11-11T19:49:27.481Z,99.90
2023-11-11T19:51:54.160Z,99.90
2023-11-11T19:54:21.558Z,99.90
2023-11-11T19:56:48.263Z,99.90
2023-11-11T19:59:14.978Z,99.90
2023-11-11T20:01:42.089Z,99.90
2023-11-11T20:04:08.993Z,99.90
2023-11-11T20:06:35.778Z,99.90
2023-11-11T20:09:03.372Z,99.90
2023-11-11T20:11:30.340Z,99.90
2023-11-11T20:13:57.149Z,99.90
2023-11-11T20:16:24.579Z,99.90
2023-11-11T20:18:51.659Z,99.90
2023-11-11T20:21:18.776Z,99.90
2023-11-11T20:23:45.508Z,99.90
2023-11-11T20:26:12.318Z,99.90
2023-11-11T20:28:39.198Z,99.90
2023-11-11T20:31:05.997Z,99.90
2023-11-11T20:33:34.309Z,99.90
2023-11-11T20:36:01.320Z,99.90
2023-11-11T20:38:32.744Z,99.90
2023-11-11T20:41:01.096Z,99.90
2023-11-11T20:43:28.637Z,99.90
2023-11-11T20:45:57.905Z,99.90
2023-11-11T20:48:25.791Z,99.90
2023-11-11T20:50:52.835Z,99.90
2023-11-11T20:53:19.600Z,99.90
2023-11-11T20:55:46.572Z,99.90
2023-11-11T20:58:13.320Z,99.90
2023-11-11T21:00:40.737Z,99.90
2023-11-11T21:03:07.712Z,99.90
2023-11-11T21:05:34.662Z,99.90
2023-11-11T21:08:01.940Z,99.90
2023-11-11T21:10:28.946Z,99.90
2023-11-11T21:12:56.703Z,99.90
2023-11-11T21:15:23.547Z,99.90
2023-11-11T21:17:51.612Z,99.90
2023-11-11T21:20:19.143Z,99.90
2023-11-11T21:22:48.645Z,99.90
2023-11-11T21:25:15.975Z,99.90
2023-11-11T21:27:42.703Z,99.90
2023-11-11T21:30:10.652Z,99.90
2023-11-11T21:32:37.627Z,99.90
2023-11-11T21:35:06.305Z,99.90
2023-11-11T21:37:32.968Z,99.90
2023-11-11T21:39:59.728Z,99.90
2023-11-11T21:42:28.019Z,99.90
2023-11-11T21:44:55.301Z,99.90
2023-11-11T21:47:22.870Z,99.90
2023-11-11T21:49:50.302Z,99.90
2023-11-11T21:52:17.297Z,99.90
2023-11-11T21:54:44.211Z,99.90
2023-11-11T21:57:11.416Z,99.90
2023-11-11T21:59:38.262Z,99.90
2023-11-11T22:02:05.355Z,99.90
2023-11-11T22:04:32.391Z,99.90
2023-11-11T22:06:59.385Z,99.90
2023-11-11T22:09:26.175Z,99.90
2023-11-11T22:11:53.052Z,99.90
2023-11-11T22:14:20.679Z,99.90
2023-11-11T22:16:47.789Z,99.90
2023-11-11T22:19:14.664Z,99.90
2023-11-11T22:21:41.488Z,99.90
2023-11-11T22:24:08.665Z,99.90
2023-11-11T22:26:35.542Z,99.90
2023-11-11T22:29:02.443Z,99.90
2023-11-11T22:31:29.413Z,99.90
2023-11-11T22:33:56.141Z,99.90
2023-11-11T22:36:23.308Z,99.90
2023-11-11T22:38:50.093Z,99.90
2023-11-11T22:41:16.893Z,99.90
2023-11-11T22:43:44.305Z,99.90
2023-11-11T22:46:11.181Z,99.90
2023-11-11T22:48:39.062Z,99.90
2023-11-11T22:51:05.936Z,99.90
2023-11-11T22:53:32.860Z,99.90
2023-11-11T22:56:00.019Z,99.90
2023-11-11T22:58:26.720Z,99.90
2023-11-11T23:00:59.073Z,99.90
2023-11-11T23:03:26.460Z,99.90
2023-11-11T23:05:53.563Z,99.90
2023-11-11T23:08:20.381Z,99.90
2023-11-11T23:10:47.382Z,99.90
2023-11-11T23:13:14.217Z,99.90
2023-11-11T23:15:41.232Z,99.90
2023-11-11T23:18:11.401Z,99.90
2023-11-11T23:20:42.231Z,99.90
2023-11-11T23:23:10.643Z,99.90
2023-11-11T23:25:40.005Z,99.90
2023-11-11T23:28:07.168Z,99.90
2023-11-11T23:30:33.982Z,99.90
2023-11-11T23:33:01.346Z,99.90
2023-11-11T23:35:29.274Z,99.90
2023-11-11T23:37:57.723Z,99.90
2023-11-11T23:40:24.600Z,99.90
2023-11-11T23:45:34.384Z,99.90
2023-11-11T23:48:01.898Z,99.90
2023-11-11T23:50:28.710Z,99.90
2023-11-11T23:52:55.560Z,99.90
2023-11-11T23:55:22.502Z,99.90
2023-11-11T23:57:49.208Z,99.90
